createdAt,value
2022-12-14T00:02:39.491Z,-1.30
2022-12-14T00:05:26.406Z,-1.30
2022-12-14T00:08:13.146Z,-1.30
2022-12-14T00:10:59.910Z,-1.40
2022-12-14T00:13:48.832Z,-1.50
2022-12-14T00:16:37.091Z,-1.50
2022-12-14T00:19:23.747Z,-1.50
2022-12-14T00:22:10.238Z,-1.40
2022-12-14T00:24:56.592Z,-1.40
2022-12-14T00:27:45.328Z,-1.40
2022-12-14T00:30:35.887Z,-1.40
2022-12-14T00:33:22.583Z,-1.30
2022-12-14T00:36:11.155Z,-1.30
2022-12-14T00:38:57.890Z,-1.20
2022-12-14T00:41:44.427Z,-1.20
2022-12-14T00:44:31.300Z,-1.10
2022-12-14T00:47:19.037Z,-1.20
2022-12-14T00:50:06.103Z,-1.10
2022-12-14T00:52:52.549Z,-1.20
2022-12-14T00:55:40.239Z,-1.10
2022-12-14T00:58:27.830Z,-1.10
2022-12-14T01:01:15.092Z,-1.10
2022-12-14T01:06:57.397Z,-1.00
2022-12-14T01:09:44.209Z,-1.00
2022-12-14T01:12:31.620Z,-1.00
2022-12-14T01:15:18.625Z,-1.10
2022-12-14T01:18:05.601Z,-1.20
2022-12-14T01:20:51.989Z,-1.20
2022-12-14T01:23:39.806Z,-1.20
2022-12-14T01:26:27.799Z,-1.30
2022-12-14T01:29:14.182Z,-1.40
2022-12-14T01:32:01.122Z,-1.40
2022-12-14T01:34:49.077Z,-1.40
2022-12-14T01:37:35.480Z,-1.30
2022-12-14T01:40:23.385Z,-1.30
2022-12-14T01:43:14.421Z,-1.30
2022-12-14T01:46:00.740Z,-1.30
2022-12-14T01:48:51.156Z,-1.30
2022-12-14T01:51:39.137Z,-1.30
2022-12-14T01:54:28.466Z,-1.20
2022-12-14T01:57:18.637Z,-1.30
2022-12-14T02:00:08.628Z,-1.20
2022-12-14T02:02:59.569Z,-1.30
2022-12-14T02:05:49.826Z,-1.30
2022-12-14T02:08:36.980Z,-1.30
2022-12-14T02:11:33.165Z,-1.20
2022-12-14T02:14:21.367Z,-1.20
2022-12-14T02:17:09.572Z,-1.20
2022-12-14T02:19:57.602Z,-1.20
2022-12-14T02:23:13.798Z,-1.30
2022-12-14T02:26:45.616Z,-1.20
2022-12-14T02:30:11.867Z,-1.10
2022-12-14T02:33:16.606Z,-1.20
2022-12-14T02:36:08.512Z,-1.20
2022-12-14T02:39:03.792Z,-1.20
2022-12-14T02:41:56.739Z,-1.20
2022-12-14T02:44:57.048Z,-1.20
2022-12-14T02:47:54.473Z,-1.20
2022-12-14T02:50:48.061Z,-1.20
2022-12-14T02:53:39.858Z,-1.20
2022-12-14T02:56:34.015Z,-1.10
2022-12-14T02:59:22.305Z,-1.10
2022-12-14T03:02:13.652Z,-1.00
2022-12-14T03:05:00.211Z,-1.10
2022-12-14T03:07:50.704Z,-1.00
2022-12-14T03:10:44.960Z,-1.00
2022-12-14T03:13:35.666Z,-1.00
2022-12-14T03:16:25.346Z,-1.00
2022-12-14T03:19:19.534Z,-1.00
2022-12-14T03:22:10.582Z,-1.00
2022-12-14T03:25:01.550Z,-1.00
2022-12-14T03:27:52.494Z,-0.90
2022-12-14T03:30:59.896Z,-0.90
2022-12-14T03:33:49.854Z,-0.90
2022-12-14T03:36:43.451Z,-0.80
2022-12-14T03:39:31.546Z,-0.80
2022-12-14T03:42:24.232Z,-0.80
2022-12-14T03:45:19.289Z,-0.80
2022-12-14T03:48:13.169Z,-0.70
2022-12-14T03:51:11.086Z,-0.70
2022-12-14T03:54:06.706Z,-0.70
2022-12-14T03:56:57.846Z,-0.70
2022-12-14T03:59:53.787Z,-0.70
2022-12-14T04:02:47.697Z,-0.70
2022-12-14T04:05:42.842Z,-0.70
2022-12-14T04:08:41.696Z,-0.70
2022-12-14T04:11:53.875Z,-0.70
2022-12-14T04:15:03.773Z,-0.70
2022-12-14T04:18:11.959Z,-0.70
2022-12-14T04:21:04.229Z,-0.70
2022-12-14T04:24:11.291Z,-0.70
2022-12-14T04:27:03.200Z,-0.70
2022-12-14T04:29:58.994Z,-0.60
2022-12-14T04:32:50.131Z,-0.60
2022-12-14T04:35:40.828Z,-0.70
2022-12-14T04:38:34.438Z,-0.60
2022-12-14T04:41:25.618Z,-0.60
2022-12-14T04:44:20.960Z,-0.60
2022-12-14T04:47:10.828Z,-0.60
2022-12-14T04:50:01.467Z,-0.60
2022-12-14T04:52:52.339Z,-0.60
2022-12-14T04:55:44.208Z,-0.50
2022-12-14T04:58:32.429Z,-0.50
2022-12-14T05:01:34.077Z,-0.50
2022-12-14T05:04:32.254Z,-0.50
2022-12-14T05:07:22.525Z,-0.40
2022-12-14T05:10:13.917Z,-0.50
2022-12-14T05:13:06.325Z,-0.50
2022-12-14T05:15:55.675Z,-0.50
2022-12-14T05:18:44.193Z,-0.50
2022-12-14T05:21:49.725Z,-0.50
2022-12-14T05:24:36.405Z,-0.60
2022-12-14T05:27:23.001Z,-0.50
2022-12-14T05:30:10.602Z,-0.50
2022-12-14T05:32:57.533Z,-0.60
2022-12-14T05:35:45.259Z,-0.50
2022-12-14T05:38:31.685Z,-0.50
2022-12-14T05:41:18.060Z,-0.50
2022-12-14T05:44:04.433Z,-0.50
2022-12-14T05:46:50.802Z,-0.50
2022-12-14T05:49:37.249Z,-0.60
2022-12-14T05:52:27.418Z,-0.70
2022-12-14T05:55:14.047Z,-0.80
2022-12-14T05:58:00.871Z,-0.80
2022-12-14T06:00:47.553Z,-0.70
2022-12-14T06:03:34.270Z,-0.70
2022-12-14T06:06:21.156Z,-0.70
2022-12-14T06:09:10.842Z,-0.80
2022-12-14T06:11:57.122Z,-0.80
2022-12-14T06:14:43.918Z,-0.80
2022-12-14T06:17:30.562Z,-0.80
2022-12-14T06:20:17.175Z,-0.80
2022-12-14T06:23:04.026Z,-0.80
2022-12-14T06:25:55.527Z,-0.70
2022-12-14T06:28:42.252Z,-0.80
2022-12-14T06:31:30.740Z,-0.90
2022-12-14T06:34:18.634Z,-0.80
2022-12-14T06:37:06.117Z,-0.80
2022-12-14T06:39:54.585Z,-0.90
2022-12-14T06:42:42.435Z,-0.90
2022-12-14T06:45:29.733Z,-0.80
2022-12-14T06:48:16.465Z,-0.70
2022-12-14T06:51:03.557Z,-0.70
2022-12-14T06:53:51.931Z,-0.70
2022-12-14T06:56:38.958Z,-0.70
2022-12-14T06:59:26.646Z,-0.70
2022-12-14T07:02:13.306Z,-0.70
2022-12-14T07:04:59.970Z,-0.60
2022-12-14T07:07:46.403Z,-0.70
2022-12-14T07:10:32.782Z,-0.70
2022-12-14T07:13:19.266Z,-0.70
2022-12-14T07:16:08.929Z,-0.80
2022-12-14T07:18:56.340Z,-0.70
2022-12-14T07:21:42.978Z,-0.70
2022-12-14T07:24:29.179Z,-0.60
2022-12-14T07:27:18.173Z,-0.60
2022-12-14T07:30:04.931Z,-0.60
2022-12-14T07:32:52.536Z,-0.50
2022-12-14T07:35:39.172Z,-0.50
2022-12-14T07:38:25.611Z,-0.50
2022-12-14T07:41:17.676Z,-0.40
2022-12-14T07:44:07.061Z,-0.30
2022-12-14T07:46:54.402Z,-0.30
2022-12-14T07:49:42.318Z,-0.30
2022-12-14T07:52:31.636Z,-0.40
2022-12-14T07:55:22.379Z,-0.50
2022-12-14T07:58:08.670Z,-0.60
2022-12-14T08:00:55.184Z,-0.60
2022-12-14T08:03:42.914Z,-0.60
2022-12-14T08:06:31.268Z,-0.60
2022-12-14T08:09:20.043Z,-0.50
2022-12-14T08:12:06.644Z,-0.60
2022-12-14T08:14:53.470Z,-0.60
2022-12-14T08:17:39.809Z,-0.50
2022-12-14T08:20:26.296Z,-0.40
2022-12-14T08:23:14.550Z,-0.50
2022-12-14T08:26:02.196Z,-0.50
2022-12-14T08:28:49.546Z,-0.50
2022-12-14T08:31:36.276Z,-0.50
2022-12-14T08:34:23.211Z,-0.40
2022-12-14T08:37:10.316Z,-0.40
2022-12-14T08:39:58.122Z,-0.30
2022-12-14T08:42:44.788Z,-0.30
2022-12-14T08:45:31.112Z,-0.40
2022-12-14T08:48:17.780Z,-0.40
2022-12-14T08:51:05.548Z,-0.50
2022-12-14T08:53:54.083Z,-0.50
2022-12-14T08:56:41.793Z,-0.40
2022-12-14T08:59:59.557Z,-0.50
2022-12-14T09:02:35.221Z,-0.40
2022-12-14T09:05:22.058Z,-0.40
2022-12-14T09:08:08.532Z,-0.30
2022-12-14T09:10:54.914Z,-0.30
2022-12-14T09:13:43.054Z,-0.30
2022-12-14T09:16:29.924Z,-0.30
2022-12-14T09:19:16.821Z,-0.20
2022-12-14T09:22:04.100Z,-0.10
2022-12-14T09:24:52.186Z,-0.10
2022-12-14T09:27:38.908Z,-0.20
2022-12-14T09:30:27.420Z,-0.20
2022-12-14T09:33:14.045Z,-0.20
2022-12-14T09:36:03.915Z,-0.10
2022-12-14T09:38:52.765Z,0.00
2022-12-14T09:41:56.380Z,0.00
2022-12-14T09:44:56.850Z,0.10
2022-12-14T09:47:51.223Z,0.30
2022-12-14T09:50:39.923Z,0.20
2022-12-14T09:53:27.735Z,0.20
2022-12-14T09:56:18.377Z,0.10
2022-12-14T09:59:05.086Z,0.30
2022-12-14T10:02:29.656Z,0.20
2022-12-14T10:05:51.477Z,0.30
2022-12-14T10:08:47.072Z,0.30
2022-12-14T10:11:48.492Z,0.30
2022-12-14T10:14:51.041Z,0.30
2022-12-14T10:18:03.341Z,0.40
2022-12-14T10:20:59.300Z,0.30
2022-12-14T10:23:53.581Z,0.20
2022-12-14T10:26:44.902Z,0.10
2022-12-14T10:29:37.497Z,0.10
2022-12-14T10:32:31.165Z,0.10
2022-12-14T10:35:19.404Z,0.20
2022-12-14T10:38:19.485Z,0.40
2022-12-14T10:41:15.752Z,0.50
2022-12-14T10:44:11.042Z,0.60
2022-12-14T10:47:04.624Z,0.80
2022-12-14T10:49:58.186Z,0.90
2022-12-14T10:52:46.049Z,1.00
2022-12-14T10:55:36.858Z,1.20
2022-12-14T10:58:23.463Z,1.10
2022-12-14T11:01:14.629Z,1.30
2022-12-14T11:04:01.286Z,1.20
2022-12-14T11:06:48.155Z,1.40
2022-12-14T11:09:35.302Z,1.50
2022-12-14T11:12:25.859Z,1.40
2022-12-14T11:15:25.362Z,1.40
2022-12-14T11:18:28.563Z,1.40
2022-12-14T11:21:16.413Z,1.50
2022-12-14T11:24:03.164Z,1.50
2022-12-14T11:26:50.831Z,1.60
2022-12-14T11:29:40.849Z,1.60
2022-12-14T11:32:27.223Z,1.60
2022-12-14T11:35:17.573Z,1.50
2022-12-14T11:38:05.608Z,1.40
2022-12-14T11:40:52.599Z,1.30
2022-12-14T11:43:39.595Z,1.30
2022-12-14T11:46:44.750Z,1.30
2022-12-14T11:49:37.002Z,1.10
2022-12-14T11:52:26.097Z,1.10
2022-12-14T11:55:15.195Z,1.10
2022-12-14T11:58:02.172Z,1.20
2022-12-14T12:00:52.876Z,1.20
2022-12-14T12:03:45.854Z,1.30
2022-12-14T12:06:32.847Z,1.00
2022-12-14T12:09:28.834Z,0.90
2022-12-14T12:12:20.940Z,0.90
2022-12-14T12:15:16.987Z,1.10
2022-12-14T12:18:06.775Z,1.20
2022-12-14T12:20:59.155Z,1.10
2022-12-14T12:23:50.222Z,1.20
2022-12-14T12:26:40.651Z,1.20
2022-12-14T12:29:33.011Z,1.30
2022-12-14T12:32:23.582Z,1.30
2022-12-14T12:35:16.909Z,1.20
2022-12-14T12:38:11.714Z,1.30
2022-12-14T12:41:03.014Z,1.20
2022-12-14T12:43:54.556Z,1.20
2022-12-14T12:47:22.292Z,1.30
2022-12-14T12:50:00.094Z,1.30
2022-12-14T12:53:02.355Z,1.30
2022-12-14T12:55:54.305Z,1.30
2022-12-14T12:58:41.922Z,1.30
2022-12-14T13:01:33.631Z,1.30
2022-12-14T13:04:28.110Z,1.30
2022-12-14T13:07:24.025Z,1.30
2022-12-14T13:10:20.548Z,1.40
2022-12-14T13:13:13.878Z,1.40
2022-12-14T13:16:09.966Z,1.40
2022-12-14T13:19:19.120Z,1.30
2022-12-14T13:22:14.972Z,1.30
2022-12-14T13:25:09.730Z,1.30
2022-12-14T13:28:22.377Z,1.30
2022-12-14T13:31:20.936Z,1.30
2022-12-14T13:34:31.947Z,1.40
2022-12-14T13:37:53.900Z,1.40
2022-12-14T13:41:01.656Z,1.40
2022-12-14T13:44:09.863Z,1.20
2022-12-14T13:47:02.006Z,1.10
2022-12-14T13:50:26.644Z,1.00
2022-12-14T13:53:03.824Z,1.00
2022-12-14T13:55:53.888Z,1.10
2022-12-14T13:58:42.165Z,1.00
2022-12-14T14:01:57.757Z,1.00
2022-12-14T14:04:44.521Z,0.90
2022-12-14T14:07:39.334Z,1.00
2022-12-14T14:10:32.490Z,1.00
2022-12-14T14:13:56.749Z,1.00
2022-12-14T14:16:45.213Z,1.10
2022-12-14T14:19:40.435Z,1.10
2022-12-14T14:22:29.010Z,1.10
2022-12-14T14:25:38.672Z,1.20
2022-12-14T14:28:30.874Z,1.10
2022-12-14T14:31:18.260Z,1.10
2022-12-14T14:34:05.879Z,1.00
2022-12-14T14:36:53.640Z,1.00
2022-12-14T14:40:07.204Z,1.00
2022-12-14T14:42:52.822Z,1.10
2022-12-14T14:45:42.146Z,1.10
2022-12-14T14:48:34.552Z,1.20
2022-12-14T14:51:25.518Z,1.10
2022-12-14T14:55:07.066Z,1.20
2022-12-14T14:57:57.139Z,1.20
2022-12-14T15:00:50.880Z,1.20
2022-12-14T15:03:48.434Z,1.20
2022-12-14T15:06:42.131Z,1.20
2022-12-14T15:09:33.111Z,1.20
2022-12-14T15:12:29.007Z,1.20
2022-12-14T15:15:20.263Z,1.20
2022-12-14T15:18:17.710Z,1.20
2022-12-14T15:21:07.519Z,1.20
2022-12-14T15:23:56.565Z,1.20
2022-12-14T15:26:44.498Z,1.20
2022-12-14T15:29:31.150Z,1.30
2022-12-14T15:32:19.291Z,1.30
2022-12-14T15:35:09.636Z,1.30
2022-12-14T15:38:00.429Z,1.30
2022-12-14T15:40:56.293Z,1.30
2022-12-14T15:43:46.511Z,1.30
2022-12-14T15:46:35.679Z,1.10
2022-12-14T15:49:24.194Z,1.00
2022-12-14T15:52:12.087Z,0.80
2022-12-14T15:54:59.175Z,0.70
2022-12-14T15:57:45.567Z,0.70
2022-12-14T16:00:34.330Z,0.60
2022-12-14T16:03:29.279Z,0.70
2022-12-14T16:06:17.096Z,0.70
2022-12-14T16:09:07.016Z,0.70
2022-12-14T16:11:56.684Z,0.60
2022-12-14T16:14:46.782Z,0.60
2022-12-14T16:17:39.681Z,0.70
2022-12-14T16:20:28.891Z,0.80
2022-12-14T16:23:30.132Z,0.80
2022-12-14T16:26:24.715Z,0.90
2022-12-14T16:29:21.224Z,0.90
2022-12-14T16:32:15.435Z,0.80
2022-12-14T16:35:03.904Z,0.90
2022-12-14T16:37:53.860Z,0.90
2022-12-14T16:40:42.982Z,1.00
2022-12-14T16:43:33.790Z,0.90
2022-12-14T16:46:21.214Z,0.80
2022-12-14T16:49:32.927Z,0.80
2022-12-14T16:52:24.093Z,0.90
2022-12-14T16:55:14.996Z,0.80
2022-12-14T16:58:02.275Z,0.70
2022-12-14T17:00:59.348Z,0.70
2022-12-14T17:04:03.106Z,0.80
2022-12-14T17:06:51.756Z,0.60
2022-12-14T17:09:40.054Z,0.70
2022-12-14T17:12:27.926Z,0.70
2022-12-14T17:15:15.564Z,0.70
2022-12-14T17:18:04.976Z,0.80
2022-12-14T17:20:51.725Z,0.90
2022-12-14T17:23:41.416Z,0.80
2022-12-14T17:26:32.094Z,0.80
2022-12-14T17:29:23.260Z,0.80
2022-12-14T17:32:13.418Z,0.70
2022-12-14T17:35:01.030Z,0.80
2022-12-14T17:37:48.355Z,0.80
2022-12-14T17:40:36.324Z,0.70
2022-12-14T17:43:27.733Z,0.80
2022-12-14T17:46:14.514Z,0.80
2022-12-14T17:49:06.216Z,0.70
2022-12-14T17:51:53.263Z,0.70
2022-12-14T17:54:39.780Z,0.60
2022-12-14T17:57:27.476Z,0.60
2022-12-14T18:00:37.131Z,0.70
2022-12-14T18:03:24.348Z,0.70
2022-12-14T18:06:15.950Z,0.70
2022-12-14T18:09:02.564Z,0.70
2022-12-14T18:12:14.394Z,0.70
2022-12-14T18:14:55.556Z,0.80
2022-12-14T18:17:43.343Z,0.70
2022-12-14T18:20:30.963Z,0.60
2022-12-14T18:23:18.928Z,0.70
2022-12-14T18:26:05.652Z,0.70
2022-12-14T18:28:53.816Z,0.70
2022-12-14T18:31:40.921Z,0.70
2022-12-14T18:34:29.203Z,0.70
2022-12-14T18:37:18.715Z,0.70
2022-12-14T18:40:13.514Z,0.70
2022-12-14T18:43:00.011Z,0.70
2022-12-14T18:45:46.642Z,0.50
2022-12-14T18:48:33.427Z,0.60
2022-12-14T18:51:23.189Z,0.60
2022-12-14T18:54:11.483Z,0.60
2022-12-14T18:56:57.884Z,0.60
2022-12-14T18:59:44.623Z,0.60
2022-12-14T19:02:31.308Z,0.70
2022-12-14T19:05:25.610Z,0.70
2022-12-14T19:08:14.338Z,0.70
2022-12-14T19:11:01.445Z,0.70
2022-12-14T19:13:48.326Z,0.70
2022-12-14T19:16:34.878Z,0.80
2022-12-14T19:19:24.274Z,0.80
2022-12-14T19:22:12.483Z,0.90
2022-12-14T19:25:00.821Z,0.80
2022-12-14T19:30:56.241Z,0.80
2022-12-14T19:33:42.690Z,0.90
2022-12-14T19:36:29.174Z,0.90
2022-12-14T19:39:15.523Z,0.90
2022-12-14T19:42:03.241Z,0.70
2022-12-14T19:44:49.863Z,0.80
2022-12-14T19:47:36.671Z,0.80
2022-12-14T19:50:23.240Z,0.80
2022-12-14T19:53:09.722Z,0.80
2022-12-14T19:55:56.143Z,0.80
2022-12-14T19:58:44.242Z,0.80
2022-12-14T20:01:35.072Z,0.80
2022-12-14T20:04:21.876Z,0.70
2022-12-14T20:07:09.190Z,0.70
2022-12-14T20:09:55.514Z,0.60
2022-12-14T20:12:41.926Z,0.60
2022-12-14T20:15:29.663Z,0.60
2022-12-14T20:18:16.031Z,0.60
2022-12-14T20:21:03.740Z,0.60
2022-12-14T20:23:50.404Z,0.70
2022-12-14T20:26:37.063Z,0.70
2022-12-14T20:29:23.731Z,0.70
2022-12-14T20:32:12.691Z,0.50
2022-12-14T20:34:59.406Z,0.50
2022-12-14T20:37:45.855Z,0.50
2022-12-14T20:40:38.045Z,0.40
2022-12-14T20:43:25.617Z,0.50
2022-12-14T20:46:26.381Z,0.60
2022-12-14T20:49:17.142Z,0.70
2022-12-14T20:52:03.621Z,0.70
2022-12-14T20:54:50.779Z,0.70
2022-12-14T20:57:37.491Z,0.70
2022-12-14T21:00:24.065Z,0.70
2022-12-14T21:03:11.448Z,0.90
2022-12-14T21:06:00.847Z,0.80
2022-12-14T21:09:04.838Z,0.80
2022-12-14T21:12:09.723Z,0.80
2022-12-14T21:14:57.688Z,0.70
2022-12-14T21:17:44.032Z,0.60
2022-12-14T21:20:30.451Z,0.70
2022-12-14T21:23:18.132Z,0.80
2022-12-14T21:26:04.629Z,0.60
2022-12-14T21:28:50.975Z,0.60
2022-12-14T21:31:37.400Z,0.70
2022-12-14T21:34:24.659Z,0.80
2022-12-14T21:37:11.925Z,0.80
2022-12-14T21:40:02.937Z,0.80
2022-12-14T21:42:49.782Z,0.80
2022-12-14T21:45:36.491Z,0.70
2022-12-14T21:48:22.971Z,0.80
2022-12-14T21:51:09.935Z,0.80
2022-12-14T21:54:00.157Z,0.60
2022-12-14T21:57:05.213Z,0.50
2022-12-14T21:59:51.911Z,0.60
2022-12-14T22:02:39.250Z,0.50
2022-12-14T22:05:26.110Z,0.50
2022-12-14T22:08:12.979Z,0.40
2022-12-14T22:11:03.453Z,0.50
2022-12-14T22:13:51.382Z,0.50
2022-12-14T22:16:37.809Z,0.50
2022-12-14T22:19:25.662Z,0.40
2022-12-14T22:22:15.261Z,0.50
2022-12-14T22:25:01.789Z,0.60
2022-12-14T22:27:49.836Z,0.70
2022-12-14T22:30:38.245Z,0.70
2022-12-14T22:33:24.894Z,0.80
2022-12-14T22:36:11.270Z,0.70
2022-12-14T22:38:58.442Z,0.70
2022-12-14T22:41:45.196Z,0.80
2022-12-14T22:44:31.979Z,0.80
2022-12-14T22:47:19.936Z,0.80
2022-12-14T22:50:07.819Z,0.80
2022-12-14T22:52:54.736Z,0.70
2022-12-14T22:55:41.782Z,0.70
2022-12-14T22:58:29.753Z,0.80
2022-12-14T23:01:19.251Z,0.60
2022-12-14T23:04:08.800Z,0.60
2022-12-14T23:06:56.031Z,0.70
2022-12-14T23:10:00.080Z,0.50
2022-12-14T23:13:04.700Z,0.40
2022-12-14T23:16:08.672Z,0.30
2022-12-14T23:19:12.766Z,0.30
2022-12-14T23:22:18.210Z,0.20
2022-12-14T23:25:22.497Z,0.00
2022-12-14T23:28:26.448Z,0.00
2022-12-14T23:31:30.409Z,0.00
2022-12-14T23:34:34.483Z,0.20
2022-12-14T23:37:39.747Z,0.30
2022-12-14T23:40:44.093Z,0.30
2022-12-14T23:43:48.114Z,0.40
2022-12-14T23:46:52.190Z,0.40
2022-12-14T23:49:56.006Z,0.30
2022-12-14T23:53:01.324Z,0.30
2022-12-14T23:56:05.216Z,0.30
2022-12-14T23:59:13.748Z,0.40
